sensor_id;sensor_type;location;lat;lon;timestamp;pressure;altitude;pressure_sealevel;temperature;humidity
6668;BME280;3370;47.712;9.082;2023-07-09T00:01:40;97432.22;;;19.70;81.93
6668;BME280;3370;47.712;9.082;2023-07-09T00:04:10;97435.59;;;19.72;81.71
6668;BME280;3370;47.712;9.082;2023-07-09T00:06:37;97429.50;;;19.72;81.62
6668;BME280;3370;47.712;9.082;2023-07-09T00:09:03;97435.25;;;19.88;81.58
6668;BME280;3370;47.712;9.082;2023-07-09T00:11:30;97429.09;;;20.01;80.97
6668;BME280;3370;47.712;9.082;2023-07-09T00:13:56;97425.06;;;19.85;81.74
6668;BME280;3370;47.712;9.082;2023-07-09T00:16:25;97436.25;;;19.63;83.29
6668;BME280;3370;47.712;9.082;2023-07-09T00:18:51;97440.75;;;19.50;84.05
6668;BME280;3370;47.712;9.082;2023-07-09T00:21:21;97441.44;;;19.41;84.45
6668;BME280;3370;47.712;9.082;2023-07-09T00:23:47;97446.16;;;19.35;84.73
6668;BME280;3370;47.712;9.082;2023-07-09T00:26:16;97442.34;;;19.28;84.91
6668;BME280;3370;47.712;9.082;2023-07-09T00:28:43;97432.31;;;19.35;84.35
6668;BME280;3370;47.712;9.082;2023-07-09T00:31:15;97434.53;;;19.40;84.34
6668;BME280;3370;47.712;9.082;2023-07-09T00:33:42;97431.91;;;19.28;84.96
6668;BME280;3370;47.712;9.082;2023-07-09T00:36:29;97438.56;;;19.32;84.68
6668;BME280;3370;47.712;9.082;2023-07-09T00:38:57;97435.69;;;19.24;84.92
6668;BME280;3370;47.712;9.082;2023-07-09T00:41:28;97445.06;;;19.27;85.17
6668;BME280;3370;47.712;9.082;2023-07-09T00:43:55;97447.38;;;19.43;83.80
6668;BME280;3370;47.712;9.082;2023-07-09T00:49:02;97437.59;;;19.22;85.54
6668;BME280;3370;47.712;9.082;2023-07-09T00:51:40;97446.22;;;19.11;86.35
6668;BME280;3370;47.712;9.082;2023-07-09T00:54:38;97447.25;;;19.09;86.47
6668;BME280;3370;47.712;9.082;2023-07-09T00:57:14;97448.09;;;19.09;86.47
6668;BME280;3370;47.712;9.082;2023-07-09T00:59:46;97448.03;;;19.22;85.97
6668;BME280;3370;47.712;9.082;2023-07-09T01:02:14;97448.28;;;19.30;85.91
6668;BME280;3370;47.712;9.082;2023-07-09T01:04:41;97445.72;;;19.42;84.44
6668;BME280;3370;47.712;9.082;2023-07-09T01:07:07;97457.66;;;19.09;86.04
6668;BME280;3370;47.712;9.082;2023-07-09T01:09:34;97455.47;;;18.91;87.03
6668;BME280;3370;47.712;9.082;2023-07-09T01:12:08;97463.91;;;18.95;87.80
6668;BME280;3370;47.712;9.082;2023-07-09T01:14:35;97456.22;;;18.81;88.44
6668;BME280;3370;47.712;9.082;2023-07-09T01:17:05;97453.00;;;18.77;88.60
6668;BME280;3370;47.712;9.082;2023-07-09T01:19:40;97457.19;;;18.67;89.50
6668;BME280;3370;47.712;9.082;2023-07-09T01:22:13;97460.53;;;18.69;89.16
6668;BME280;3370;47.712;9.082;2023-07-09T01:27:25;97461.91;;;18.99;86.82
6668;BME280;3370;47.712;9.082;2023-07-09T01:29:54;97457.63;;;18.98;86.53
6668;BME280;3370;47.712;9.082;2023-07-09T01:32:21;97464.56;;;18.86;86.76
6668;BME280;3370;47.712;9.082;2023-07-09T01:34:52;97468.78;;;18.63;89.12
6668;BME280;3370;47.712;9.082;2023-07-09T01:37:24;97472.75;;;18.55;89.90
6668;BME280;3370;47.712;9.082;2023-07-09T01:39:51;97473.28;;;18.61;89.95
6668;BME280;3370;47.712;9.082;2023-07-09T01:42:19;97481.41;;;18.56;90.19
6668;BME280;3370;47.712;9.082;2023-07-09T01:44:49;97471.22;;;18.53;90.51
6668;BME280;3370;47.712;9.082;2023-07-09T01:47:17;97478.69;;;18.57;90.09
6668;BME280;3370;47.712;9.082;2023-07-09T01:49:43;97473.47;;;18.57;90.25
6668;BME280;3370;47.712;9.082;2023-07-09T01:52:14;97478.28;;;18.51;91.39
6668;BME280;3370;47.712;9.082;2023-07-09T01:54:42;97481.28;;;18.57;90.89
6668;BME280;3370;47.712;9.082;2023-07-09T01:57:24;97470.22;;;18.67;90.21
6668;BME280;3370;47.712;9.082;2023-07-09T01:59:54;97457.41;;;18.76;90.73
6668;BME280;3370;47.712;9.082;2023-07-09T02:02:23;97456.53;;;18.76;89.91
6668;BME280;3370;47.712;9.082;2023-07-09T02:04:55;97464.19;;;18.66;90.29
6668;BME280;3370;47.712;9.082;2023-07-09T02:07:23;97462.66;;;18.64;90.51
6668;BME280;3370;47.712;9.082;2023-07-09T02:09:50;97471.59;;;18.59;91.51
6668;BME280;3370;47.712;9.082;2023-07-09T02:12:17;97473.47;;;18.57;90.60
6668;BME280;3370;47.712;9.082;2023-07-09T02:14:45;97469.22;;;18.56;90.81
6668;BME280;3370;47.712;9.082;2023-07-09T02:17:13;97460.53;;;18.69;89.96
6668;BME280;3370;47.712;9.082;2023-07-09T02:19:39;97469.06;;;18.71;89.85
6668;BME280;3370;47.712;9.082;2023-07-09T02:22:06;97471.28;;;18.64;89.94
6668;BME280;3370;47.712;9.082;2023-07-09T02:24:32;97468.47;;;18.54;90.80
6668;BME280;3370;47.712;9.082;2023-07-09T02:27:00;97472.38;;;18.36;91.89
6668;BME280;3370;47.712;9.082;2023-07-09T02:29:28;97472.75;;;18.18;94.19
6668;BME280;3370;47.712;9.082;2023-07-09T02:31:56;97476.81;;;18.10;95.83
6668;BME280;3370;47.712;9.082;2023-07-09T02:34:25;97469.16;;;18.32;93.18
6668;BME280;3370;47.712;9.082;2023-07-09T02:36:53;97474.06;;;18.37;92.47
6668;BME280;3370;47.712;9.082;2023-07-09T02:39:19;97476.88;;;18.34;93.10
6668;BME280;3370;47.712;9.082;2023-07-09T02:41:45;97480.03;;;18.13;94.58
6668;BME280;3370;47.712;9.082;2023-07-09T02:44:11;97483.47;;;18.01;96.52
6668;BME280;3370;47.712;9.082;2023-07-09T02:46:37;97482.94;;;17.96;96.88
6668;BME280;3370;47.712;9.082;2023-07-09T02:49:05;97491.06;;;18.04;96.63
6668;BME280;3370;47.712;9.082;2023-07-09T02:51:31;97483.03;;;18.20;95.40
6668;BME280;3370;47.712;9.082;2023-07-09T02:53:59;97490.53;;;18.12;95.58
6668;BME280;3370;47.712;9.082;2023-07-09T02:56:26;97495.66;;;18.00;96.20
6668;BME280;3370;47.712;9.082;2023-07-09T02:58:52;97499.59;;;18.06;95.40
6668;BME280;3370;47.712;9.082;2023-07-09T03:01:18;97496.06;;;18.07;95.23
6668;BME280;3370;47.712;9.082;2023-07-09T03:03:57;97505.22;;;18.13;94.69
6668;BME280;3370;47.712;9.082;2023-07-09T03:06:27;97501.88;;;18.24;92.76
6668;BME280;3370;47.712;9.082;2023-07-09T03:08:52;97500.75;;;18.15;94.01
6668;BME280;3370;47.712;9.082;2023-07-09T03:11:20;97502.22;;;17.93;95.53
6668;BME280;3370;47.712;9.082;2023-07-09T03:13:46;97500.50;;;17.79;98.04
6668;BME280;3370;47.712;9.082;2023-07-09T03:16:13;97498.84;;;17.78;98.68
6668;BME280;3370;47.712;9.082;2023-07-09T03:18:40;97494.56;;;17.77;98.54
6668;BME280;3370;47.712;9.082;2023-07-09T03:21:06;97496.69;;;17.85;97.16
6668;BME280;3370;47.712;9.082;2023-07-09T03:23:31;97495.22;;;17.94;95.84
6668;BME280;3370;47.712;9.082;2023-07-09T03:25:57;97506.44;;;17.81;97.24
6668;BME280;3370;47.712;9.082;2023-07-09T03:28:25;97503.53;;;17.73;98.72
6668;BME280;3370;47.712;9.082;2023-07-09T03:30:54;97508.22;;;17.81;97.71
6668;BME280;3370;47.712;9.082;2023-07-09T03:33:20;97510.75;;;17.95;95.45
6668;BME280;3370;47.712;9.082;2023-07-09T03:35:46;97517.72;;;17.95;96.09
6668;BME280;3370;47.712;9.082;2023-07-09T03:38:12;97519.56;;;17.93;95.66
6668;BME280;3370;47.712;9.082;2023-07-09T03:40:38;97517.94;;;17.92;95.95
6668;BME280;3370;47.712;9.082;2023-07-09T03:43:05;97515.63;;;17.87;96.34
6668;BME280;3370;47.712;9.082;2023-07-09T03:45:34;97507.94;;;17.98;94.55
6668;BME280;3370;47.712;9.082;2023-07-09T03:48:01;97505.44;;;17.97;94.68
6668;BME280;3370;47.712;9.082;2023-07-09T03:50:27;97511.53;;;17.83;95.35
6668;BME280;3370;47.712;9.082;2023-07-09T03:52:53;97509.66;;;17.72;96.97
6668;BME280;3370;47.712;9.082;2023-07-09T03:55:19;97507.16;;;17.71;96.90
6668;BME280;3370;47.712;9.082;2023-07-09T03:57:45;97519.13;;;17.73;96.62
6668;BME280;3370;47.712;9.082;2023-07-09T04:00:12;97505.16;;;17.61;97.47
6668;BME280;3370;47.712;9.082;2023-07-09T04:02:39;97509.75;;;17.71;97.19
6668;BME280;3370;47.712;9.082;2023-07-09T04:05:07;97514.94;;;17.71;97.72
6668;BME280;3370;47.712;9.082;2023-07-09T04:07:34;97513.50;;;17.79;97.09
6668;BME280;3370;47.712;9.082;2023-07-09T04:10:00;97525.78;;;17.77;96.75
6668;BME280;3370;47.712;9.082;2023-07-09T04:12:27;97527.34;;;17.80;97.25
6668;BME280;3370;47.712;9.082;2023-07-09T04:14:53;97516.00;;;17.68;98.39
6668;BME280;3370;47.712;9.082;2023-07-09T04:17:19;97518.25;;;17.60;99.72
6668;BME280;3370;47.712;9.082;2023-07-09T04:19:44;97521.09;;;17.57;100.00
6668;BME280;3370;47.712;9.082;2023-07-09T04:22:13;97525.66;;;17.53;100.00
6668;BME280;3370;47.712;9.082;2023-07-09T04:24:39;97529.63;;;17.59;100.00
6668;BME280;3370;47.712;9.082;2023-07-09T04:27:05;97528.53;;;17.89;99.02
6668;BME280;3370;47.712;9.082;2023-07-09T04:29:32;97530.41;;;17.99;97.78
6668;BME280;3370;47.712;9.082;2023-07-09T04:32:06;97531.84;;;17.91;97.59
6668;BME280;3370;47.712;9.082;2023-07-09T04:34:32;97536.44;;;17.87;97.85
6668;BME280;3370;47.712;9.082;2023-07-09T04:36:58;97533.00;;;17.87;99.51
6668;BME280;3370;47.712;9.082;2023-07-09T04:39:24;97540.38;;;17.93;98.40
6668;BME280;3370;47.712;9.082;2023-07-09T04:41:50;97541.00;;;17.96;98.64
6668;BME280;3370;47.712;9.082;2023-07-09T04:44:16;97535.19;;;17.93;99.79
6668;BME280;3370;47.712;9.082;2023-07-09T04:46:42;97537.78;;;17.93;100.00
6668;BME280;3370;47.712;9.082;2023-07-09T04:49:08;97533.53;;;18.05;99.93
6668;BME280;3370;47.712;9.082;2023-07-09T04:51:34;97534.88;;;18.10;99.33
6668;BME280;3370;47.712;9.082;2023-07-09T04:54:00;97533.72;;;18.14;98.68
6668;BME280;3370;47.712;9.082;2023-07-09T04:56:29;97532.81;;;18.15;98.17
6668;BME280;3370;47.712;9.082;2023-07-09T04:58:56;97530.41;;;18.12;99.17
6668;BME280;3370;47.712;9.082;2023-07-09T05:01:22;97525.44;;;18.09;99.90
6668;BME280;3370;47.712;9.082;2023-07-09T05:03:48;97540.63;;;18.15;99.70
6668;BME280;3370;47.712;9.082;2023-07-09T05:06:14;97531.66;;;18.19;100.00
6668;BME280;3370;47.712;9.082;2023-07-09T05:08:41;97540.50;;;18.30;99.89
6668;BME280;3370;47.712;9.082;2023-07-09T05:11:07;97533.94;;;18.37;100.00
6668;BME280;3370;47.712;9.082;2023-07-09T05:13:33;97533.41;;;18.32;100.00
6668;BME280;3370;47.712;9.082;2023-07-09T05:15:59;97538.19;;;18.38;100.00
6668;BME280;3370;47.712;9.082;2023-07-09T05:18:24;97535.56;;;18.51;100.00
6668;BME280;3370;47.712;9.082;2023-07-09T05:20:50;97534.34;;;18.44;100.00
6668;BME280;3370;47.712;9.082;2023-07-09T05:23:16;97536.94;;;18.44;100.00
6668;BME280;3370;47.712;9.082;2023-07-09T05:25:42;97528.09;;;18.46;100.00
6668;BME280;3370;47.712;9.082;2023-07-09T05:28:08;97536.44;;;18.51;99.93
6668;BME280;3370;47.712;9.082;2023-07-09T05:30:33;97527.16;;;18.60;98.92
6668;BME280;3370;47.712;9.082;2023-07-09T05:32:59;97535.66;;;18.75;96.98
6668;BME280;3370;47.712;9.082;2023-07-09T05:35:26;97524.06;;;18.79;96.40
6668;BME280;3370;47.712;9.082;2023-07-09T05:37:55;97532.69;;;18.92;95.30
6668;BME280;3370;47.712;9.082;2023-07-09T05:40:22;97536.03;;;18.94;94.83
6668;BME280;3370;47.712;9.082;2023-07-09T05:42:48;97531.47;;;18.85;95.33
6668;BME280;3370;47.712;9.082;2023-07-09T05:45:16;97528.13;;;18.83;96.41
6668;BME280;3370;47.712;9.082;2023-07-09T05:47:41;97521.91;;;19.10;95.28
6668;BME280;3370;47.712;9.082;2023-07-09T05:50:08;97522.94;;;19.31;93.78
6668;BME280;3370;47.712;9.082;2023-07-09T05:52:34;97533.34;;;19.20;95.17
6668;BME280;3370;47.712;9.082;2023-07-09T05:54:59;97523.72;;;19.21;96.20
6668;BME280;3370;47.712;9.082;2023-07-09T05:57:26;97530.78;;;19.31;95.38
6668;BME280;3370;47.712;9.082;2023-07-09T05:59:51;97524.13;;;19.27;95.09
6668;BME280;3370;47.712;9.082;2023-07-09T06:02:20;97528.13;;;19.20;95.36
6668;BME280;3370;47.712;9.082;2023-07-09T06:04:47;97525.94;;;19.14;96.58
6668;BME280;3370;47.712;9.082;2023-07-09T06:07:16;97523.72;;;19.21;97.25
6668;BME280;3370;47.712;9.082;2023-07-09T06:09:44;97528.16;;;19.31;97.16
6668;BME280;3370;47.712;9.082;2023-07-09T06:12:12;97527.44;;;19.29;96.97
6668;BME280;3370;47.712;9.082;2023-07-09T06:14:38;97520.06;;;19.23;97.77
6668;BME280;3370;47.712;9.082;2023-07-09T06:17:04;97528.91;;;19.45;97.00
6668;BME280;3370;47.712;9.082;2023-07-09T06:19:30;97531.31;;;19.48;96.91
6668;BME280;3370;47.712;9.082;2023-07-09T06:21:55;97517.47;;;19.59;96.01
6668;BME280;3370;47.712;9.082;2023-07-09T06:24:22;97520.94;;;19.70;94.68
6668;BME280;3370;47.712;9.082;2023-07-09T06:26:48;97516.56;;;19.71;94.40
6668;BME280;3370;47.712;9.082;2023-07-09T06:29:14;97524.50;;;19.69;94.63
6668;BME280;3370;47.712;9.082;2023-07-09T06:31:39;97518.63;;;19.79;94.39
6668;BME280;3370;47.712;9.082;2023-07-09T06:34:06;97519.84;;;19.86;94.72
6668;BME280;3370;47.712;9.082;2023-07-09T06:36:35;97524.81;;;19.89;93.80
6668;BME280;3370;47.712;9.082;2023-07-09T06:39:02;97517.72;;;19.91;92.34
6668;BME280;3370;47.712;9.082;2023-07-09T06:41:28;97517.84;;;20.01;93.61
6668;BME280;3370;47.712;9.082;2023-07-09T06:43:54;97516.09;;;20.13;91.86
6668;BME280;3370;47.712;9.082;2023-07-09T06:46:21;97521.31;;;20.13;89.17
6668;BME280;3370;47.712;9.082;2023-07-09T06:48:47;97523.91;;;20.13;89.42
6668;BME280;3370;47.712;9.082;2023-07-09T06:51:12;97522.00;;;20.26;88.77
6668;BME280;3370;47.712;9.082;2023-07-09T06:53:38;97521.06;;;20.27;89.60
6668;BME280;3370;47.712;9.082;2023-07-09T06:56:05;97524.03;;;20.34;87.81
6668;BME280;3370;47.712;9.082;2023-07-09T06:58:32;97519.41;;;20.37;88.40
6668;BME280;3370;47.712;9.082;2023-07-09T07:01:01;97524.38;;;20.40;87.51
6668;BME280;3370;47.712;9.082;2023-07-09T07:03:33;97527.72;;;20.42;85.58
6668;BME280;3370;47.712;9.082;2023-07-09T07:05:59;97523.44;;;20.53;87.38
6668;BME280;3370;47.712;9.082;2023-07-09T07:08:26;97524.84;;;20.57;87.81
6668;BME280;3370;47.712;9.082;2023-07-09T07:10:57;97529.84;;;20.60;86.78
6668;BME280;3370;47.712;9.082;2023-07-09T07:13:36;97521.78;;;20.74;87.19
6668;BME280;3370;47.712;9.082;2023-07-09T07:16:08;97521.72;;;20.97;84.00
6668;BME280;3370;47.712;9.082;2023-07-09T07:18:35;97524.00;;;21.01;84.48
6668;BME280;3370;47.712;9.082;2023-07-09T07:21:03;97519.34;;;21.05;86.26
6668;BME280;3370;47.712;9.082;2023-07-09T07:23:29;97520.00;;;21.18;84.11
6668;BME280;3370;47.712;9.082;2023-07-09T07:25:55;97516.69;;;21.16;85.64
6668;BME280;3370;47.712;9.082;2023-07-09T07:28:21;97518.84;;;21.11;84.43
6668;BME280;3370;47.712;9.082;2023-07-09T07:31:02;97519.84;;;21.31;83.66
6668;BME280;3370;47.712;9.082;2023-07-09T07:33:28;97518.44;;;21.27;82.79
6668;BME280;3370;47.712;9.082;2023-07-09T07:35:54;97514.50;;;21.33;84.04
6668;BME280;3370;47.712;9.082;2023-07-09T07:38:19;97514.81;;;21.51;83.14
6668;BME280;3370;47.712;9.082;2023-07-09T07:40:45;97511.03;;;21.64;82.37
6668;BME280;3370;47.712;9.082;2023-07-09T07:43:11;97510.78;;;21.68;84.27
6668;BME280;3370;47.712;9.082;2023-07-09T07:45:42;97506.22;;;21.81;83.53
6668;BME280;3370;47.712;9.082;2023-07-09T07:48:08;97506.13;;;21.71;82.87
6668;BME280;3370;47.712;9.082;2023-07-09T07:50:34;97500.41;;;21.77;83.91
6668;BME280;3370;47.712;9.082;2023-07-09T07:53:01;97494.97;;;21.90;82.09
6668;BME280;3370;47.712;9.082;2023-07-09T07:55:27;97499.28;;;22.01;83.06
6668;BME280;3370;47.712;9.082;2023-07-09T07:57:53;97498.06;;;22.05;82.81
6668;BME280;3370;47.712;9.082;2023-07-09T08:00:19;97496.84;;;22.30;79.66
6668;BME280;3370;47.712;9.082;2023-07-09T08:02:45;97499.47;;;22.40;78.35
6668;BME280;3370;47.712;9.082;2023-07-09T08:05:11;97498.47;;;22.31;78.11
6668;BME280;3370;47.712;9.082;2023-07-09T08:07:37;97499.16;;;22.33;80.01
6668;BME280;3370;47.712;9.082;2023-07-09T08:10:03;97501.72;;;22.45;80.66
6668;BME280;3370;47.712;9.082;2023-07-09T08:12:29;97503.81;;;22.61;78.93
6668;BME280;3370;47.712;9.082;2023-07-09T08:14:55;97496.69;;;22.72;76.45
6668;BME280;3370;47.712;9.082;2023-07-09T08:17:21;97495.31;;;22.78;75.30
6668;BME280;3370;47.712;9.082;2023-07-09T08:19:52;97504.94;;;22.68;76.37
6668;BME280;3370;47.712;9.082;2023-07-09T08:22:19;97496.69;;;22.82;75.23
6668;BME280;3370;47.712;9.082;2023-07-09T08:24:50;97489.56;;;22.94;76.12
6668;BME280;3370;47.712;9.082;2023-07-09T08:27:18;97494.81;;;23.04;75.55
6668;BME280;3370;47.712;9.082;2023-07-09T08:29:44;97497.88;;;23.09;74.21
6668;BME280;3370;47.712;9.082;2023-07-09T08:32:11;97493.91;;;23.24;77.23
6668;BME280;3370;47.712;9.082;2023-07-09T08:34:39;97496.53;;;23.24;74.87
6668;BME280;3370;47.712;9.082;2023-07-09T08:37:07;97484.22;;;23.44;74.80
6668;BME280;3370;47.712;9.082;2023-07-09T08:39:34;97481.16;;;23.59;70.39
6668;BME280;3370;47.712;9.082;2023-07-09T08:42:05;97486.25;;;23.70;69.77
6668;BME280;3370;47.712;9.082;2023-07-09T08:45:20;97491.22;;;23.73;73.46
6668;BME280;3370;47.712;9.082;2023-07-09T08:50:39;97490.66;;;23.79;75.90
6668;BME280;3370;47.712;9.082;2023-07-09T08:53:24;97492.59;;;23.77;75.35
6668;BME280;3370;47.712;9.082;2023-07-09T08:55:53;97489.84;;;23.88;76.02
6668;BME280;3370;47.712;9.082;2023-07-09T08:58:25;97499.22;;;23.91;74.42
6668;BME280;3370;47.712;9.082;2023-07-09T09:01:01;97491.78;;;23.86;76.19
6668;BME280;3370;47.712;9.082;2023-07-09T09:03:46;97492.56;;;23.97;74.24
6668;BME280;3370;47.712;9.082;2023-07-09T09:06:27;97490.00;;;24.24;73.79
6668;BME280;3370;47.712;9.082;2023-07-09T09:09:32;97497.09;;;24.42;74.29
6668;BME280;3370;47.712;9.082;2023-07-09T09:12:15;97490.16;;;24.50;72.35
6668;BME280;3370;47.712;9.082;2023-07-09T09:14:57;97488.13;;;24.72;72.52
6668;BME280;3370;47.712;9.082;2023-07-09T09:17:25;97489.72;;;24.83;69.46
6668;BME280;3370;47.712;9.082;2023-07-09T09:19:57;97484.41;;;24.93;71.12
6668;BME280;3370;47.712;9.082;2023-07-09T09:22:36;97484.34;;;25.02;70.06
6668;BME280;3370;47.712;9.082;2023-07-09T09:25:27;97477.28;;;25.21;69.23
6668;BME280;3370;47.712;9.082;2023-07-09T09:27:54;97477.03;;;25.24;68.19
6668;BME280;3370;47.712;9.082;2023-07-09T09:30:24;97475.28;;;25.33;67.23
6668;BME280;3370;47.712;9.082;2023-07-09T09:32:59;97476.63;;;25.37;67.08
6668;BME280;3370;47.712;9.082;2023-07-09T09:35:39;97471.28;;;25.47;67.36
6668;BME280;3370;47.712;9.082;2023-07-09T09:38:17;97476.66;;;25.63;66.01
6668;BME280;3370;47.712;9.082;2023-07-09T09:40:43;97476.88;;;25.70;66.34
6668;BME280;3370;47.712;9.082;2023-07-09T09:43:20;97484.53;;;25.81;64.13
6668;BME280;3370;47.712;9.082;2023-07-09T09:45:49;97479.09;;;25.82;65.45
6668;BME280;3370;47.712;9.082;2023-07-09T09:48:27;97480.53;;;25.95;66.69
6668;BME280;3370;47.712;9.082;2023-07-09T09:50:56;97475.34;;;26.11;66.10
6668;BME280;3370;47.712;9.082;2023-07-09T09:53:29;97480.25;;;26.06;62.99
6668;BME280;3370;47.712;9.082;2023-07-09T09:55:56;97480.41;;;26.05;64.88
6668;BME280;3370;47.712;9.082;2023-07-09T09:58:29;97484.22;;;26.10;63.48
6668;BME280;3370;47.712;9.082;2023-07-09T10:00:58;97474.63;;;26.27;61.37
6668;BME280;3370;47.712;9.082;2023-07-09T10:03:38;97467.53;;;26.36;62.35
6668;BME280;3370;47.712;9.082;2023-07-09T10:06:21;97473.84;;;26.43;61.67
6668;BME280;3370;47.712;9.082;2023-07-09T10:09:51;97469.94;;;26.55;61.68
6668;BME280;3370;47.712;9.082;2023-07-09T10:12:02;97476.59;;;26.68;62.72
6668;BME280;3370;47.712;9.082;2023-07-09T10:14:33;97470.38;;;26.85;57.95
6668;BME280;3370;47.712;9.082;2023-07-09T10:23:12;97471.97;;;27.29;57.47
6668;BME280;3370;47.712;9.082;2023-07-09T10:40:03;97455.38;;;28.09;55.55
6668;BME280;3370;47.712;9.082;2023-07-09T10:42:47;97451.69;;;28.26;53.68
6668;BME280;3370;47.712;9.082;2023-07-09T10:45:19;97447.47;;;28.40;51.80
6668;BME280;3370;47.712;9.082;2023-07-09T10:48:04;97442.13;;;28.57;49.44
6668;BME280;3370;47.712;9.082;2023-07-09T10:50:38;97443.53;;;28.76;50.25
6668;BME280;3370;47.712;9.082;2023-07-09T10:56:39;97432.50;;;29.56;51.57
6668;BME280;3370;47.712;9.082;2023-07-09T10:59:28;97427.94;;;29.50;50.63
6668;BME280;3370;47.712;9.082;2023-07-09T11:02:37;97424.88;;;29.38;53.50
6668;BME280;3370;47.712;9.082;2023-07-09T11:05:06;97418.97;;;29.51;54.01
6668;BME280;3370;47.712;9.082;2023-07-09T11:07:46;97422.00;;;29.63;52.79
6668;BME280;3370;47.712;9.082;2023-07-09T11:10:23;97415.16;;;29.69;51.02
6668;BME280;3370;47.712;9.082;2023-07-09T11:13:43;97414.19;;;29.99;50.31
6668;BME280;3370;47.712;9.082;2023-07-09T11:16:32;97412.06;;;30.39;47.03
6668;BME280;3370;47.712;9.082;2023-07-09T11:19:03;97415.25;;;30.50;47.90
6668;BME280;3370;47.712;9.082;2023-07-09T11:21:29;97406.06;;;30.89;45.17
6668;BME280;3370;47.712;9.082;2023-07-09T11:23:59;97399.25;;;31.01;45.94
6668;BME280;3370;47.712;9.082;2023-07-09T11:26:34;97400.25;;;31.22;43.57
6668;BME280;3370;47.712;9.082;2023-07-09T11:29:17;97409.94;;;31.29;44.26
6668;BME280;3370;47.712;9.082;2023-07-09T11:31:45;97402.41;;;31.33;42.95
6668;BME280;3370;47.712;9.082;2023-07-09T11:37:00;97402.78;;;31.30;44.07
6668;BME280;3370;47.712;9.082;2023-07-09T11:42:26;97403.16;;;31.83;41.13
6668;BME280;3370;47.712;9.082;2023-07-09T11:45:15;97399.69;;;32.18;37.66
6668;BME280;3370;47.712;9.082;2023-07-09T11:50:39;97395.97;;;32.05;38.79
6668;BME280;3370;47.712;9.082;2023-07-09T11:53:34;97401.97;;;31.92;35.61
6668;BME280;3370;47.712;9.082;2023-07-09T11:56:02;97399.38;;;31.99;35.62
6668;BME280;3370;47.712;9.082;2023-07-09T11:58:28;97395.59;;;31.80;35.80
6668;BME280;3370;47.712;9.082;2023-07-09T12:00:58;97387.75;;;32.07;35.11
6668;BME280;3370;47.712;9.082;2023-07-09T12:03:32;97390.66;;;32.05;34.65
6668;BME280;3370;47.712;9.082;2023-07-09T12:06:07;97395.81;;;32.20;34.50
6668;BME280;3370;47.712;9.082;2023-07-09T12:08:41;97386.19;;;32.13;35.03
6668;BME280;3370;47.712;9.082;2023-07-09T12:11:29;97391.50;;;32.19;32.46
6668;BME280;3370;47.712;9.082;2023-07-09T12:16:36;97394.78;;;32.76;32.50
6668;BME280;3370;47.712;9.082;2023-07-09T12:19:03;97394.78;;;32.83;34.94
6668;BME280;3370;47.712;9.082;2023-07-09T12:21:31;97384.41;;;33.15;33.87
6668;BME280;3370;47.712;9.082;2023-07-09T12:23:58;97383.34;;;33.36;33.86
6668;BME280;3370;47.712;9.082;2023-07-09T12:26:23;97386.03;;;33.42;31.37
6668;BME280;3370;47.712;9.082;2023-07-09T12:28:54;97380.91;;;33.54;30.28
6668;BME280;3370;47.712;9.082;2023-07-09T12:31:28;97367.50;;;33.94;31.28
6668;BME280;3370;47.712;9.082;2023-07-09T12:33:57;97372.69;;;33.69;30.19
6668;BME280;3370;47.712;9.082;2023-07-09T12:36:27;97369.16;;;33.89;29.88
6668;BME280;3370;47.712;9.082;2023-07-09T12:38:59;97360.19;;;33.10;28.85
6668;BME280;3370;47.712;9.082;2023-07-09T12:41:37;97361.38;;;33.60;28.01
6668;BME280;3370;47.712;9.082;2023-07-09T12:44:03;97363.81;;;33.89;28.38
6668;BME280;3370;47.712;9.082;2023-07-09T12:46:30;97359.38;;;33.56;28.18
6668;BME280;3370;47.712;9.082;2023-07-09T12:48:56;97359.94;;;33.78;30.08
6668;BME280;3370;47.712;9.082;2023-07-09T12:51:29;97350.78;;;34.12;32.49
6668;BME280;3370;47.712;9.082;2023-07-09T12:54:15;97346.88;;;34.22;30.44
6668;BME280;3370;47.712;9.082;2023-07-09T12:56:42;97358.94;;;34.31;28.30
6668;BME280;3370;47.712;9.082;2023-07-09T12:59:20;97353.03;;;34.15;27.47
6668;BME280;3370;47.712;9.082;2023-07-09T13:04:20;97354.44;;;34.25;27.76
6668;BME280;3370;47.712;9.082;2023-07-09T13:06:47;97353.50;;;33.99;26.55
6668;BME280;3370;47.712;9.082;2023-07-09T13:09:21;97353.28;;;34.07;26.81
6668;BME280;3370;47.712;9.082;2023-07-09T13:11:48;97341.97;;;34.18;26.16
6668;BME280;3370;47.712;9.082;2023-07-09T13:14:34;97347.06;;;34.59;27.11
6668;BME280;3370;47.712;9.082;2023-07-09T13:17:06;97347.69;;;34.92;25.29
6668;BME280;3370;47.712;9.082;2023-07-09T13:19:32;97337.41;;;35.21;24.56
6668;BME280;3370;47.712;9.082;2023-07-09T13:21:59;97341.00;;;35.08;23.86
6668;BME280;3370;47.712;9.082;2023-07-09T13:24:28;97337.56;;;35.01;24.82
6668;BME280;3370;47.712;9.082;2023-07-09T13:26:55;97337.81;;;35.43;24.49
6668;BME280;3370;47.712;9.082;2023-07-09T13:29:25;97337.97;;;35.67;25.96
6668;BME280;3370;47.712;9.082;2023-07-09T13:31:51;97335.41;;;35.97;25.12
6668;BME280;3370;47.712;9.082;2023-07-09T13:34:26;97335.03;;;35.94;24.63
6668;BME280;3370;47.712;9.082;2023-07-09T13:36:54;97340.00;;;36.08;23.67
6668;BME280;3370;47.712;9.082;2023-07-09T13:39:22;97327.75;;;36.19;24.72
6668;BME280;3370;47.712;9.082;2023-07-09T13:41:50;97330.53;;;36.55;24.15
6668;BME280;3370;47.712;9.082;2023-07-09T13:44:26;97328.78;;;36.60;23.52
6668;BME280;3370;47.712;9.082;2023-07-09T13:46:53;97329.22;;;36.76;23.20
6668;BME280;3370;47.712;9.082;2023-07-09T13:49:23;97334.66;;;36.69;23.38
6668;BME280;3370;47.712;9.082;2023-07-09T13:51:55;97329.56;;;36.79;22.68
6668;BME280;3370;47.712;9.082;2023-07-09T13:54:28;97332.38;;;36.84;23.21
6668;BME280;3370;47.712;9.082;2023-07-09T13:56:57;97327.72;;;36.92;22.19
6668;BME280;3370;47.712;9.082;2023-07-09T13:59:24;97317.91;;;36.86;20.71
6668;BME280;3370;47.712;9.082;2023-07-09T14:01:54;97316.53;;;36.95;22.80
6668;BME280;3370;47.712;9.082;2023-07-09T14:04:22;97314.09;;;36.93;20.72
6668;BME280;3370;47.712;9.082;2023-07-09T14:06:48;97322.91;;;36.82;21.36
6668;BME280;3370;47.712;9.082;2023-07-09T14:09:15;97308.75;;;37.05;20.82
6668;BME280;3370;47.712;9.082;2023-07-09T14:11:52;97311.16;;;36.95;20.90
6668;BME280;3370;47.712;9.082;2023-07-09T14:14:22;97305.13;;;37.11;20.28
6668;BME280;3370;47.712;9.082;2023-07-09T14:16:50;97300.25;;;37.20;18.34
6668;BME280;3370;47.712;9.082;2023-07-09T14:19:20;97303.59;;;37.03;20.50
6668;BME280;3370;47.712;9.082;2023-07-09T14:21:48;97301.84;;;37.09;20.96
6668;BME280;3370;47.712;9.082;2023-07-09T14:24:27;97298.16;;;37.34;20.44